sensor_id;sensor_type;location;lat;lon;timestamp;P1;durP1;ratioP1;P2;durP2;ratioP2
19402;SDS011;9837;48.888;8.998;2022-10-29T05:01:01;21.93;;;6.60;;
19402;SDS011;9837;48.888;8.998;2022-10-29T05:03:29;11.80;;;5.00;;
19402;SDS011;9837;48.888;8.998;2022-10-29T05:05:55;24.57;;;6.97;;
19402;SDS011;9837;48.888;8.998;2022-10-29T05:08:21;18.57;;;5.40;;
19402;SDS011;9837;48.888;8.998;2022-10-29T05:10:47;10.23;;;4.80;;
19402;SDS011;9837;48.888;8.998;2022-10-29T05:13:13;16.03;;;4.50;;
19402;SDS011;9837;48.888;8.998;2022-10-29T05:15:39;16.47;;;5.43;;
19402;SDS011;9837;48.888;8.998;2022-10-29T05:18:05;14.43;;;4.83;;
19402;SDS011;9837;48.888;8.998;2022-10-29T05:20:31;13.93;;;4.80;;
19402;SDS011;9837;48.888;8.998;2022-10-29T05:23:01;18.57;;;5.03;;
19402;SDS011;9837;48.888;8.998;2022-10-29T07:41:43;11.93;;;4.70;;
19402;SDS011;9837;48.888;8.998;2022-10-29T07:44:09;12.83;;;4.27;;
19402;SDS011;9837;48.888;8.998;2022-10-29T07:46:35;14.80;;;6.13;;
19402;SDS011;9837;48.888;8.998;2022-10-29T07:49:01;19.70;;;4.40;;
19402;SDS011;9837;48.888;8.998;2022-10-29T07:51:27;12.87;;;4.70;;
19402;SDS011;9837;48.888;8.998;2022-10-29T07:53:53;11.67;;;4.40;;
19402;SDS011;9837;48.888;8.998;2022-10-29T07:56:19;10.03;;;4.33;;
19402;SDS011;9837;48.888;8.998;2022-10-29T07:58:45;16.13;;;6.20;;
19402;SDS011;9837;48.888;8.998;2022-10-29T08:01:11;15.80;;;5.17;;
19402;SDS011;9837;48.888;8.998;2022-10-29T08:03:37;16.20;;;5.30;;
19402;SDS011;9837;48.888;8.998;2022-10-29T08:06:03;14.63;;;5.10;;
19402;SDS011;9837;48.888;8.998;2022-10-29T08:08:29;12.10;;;4.77;;
19402;SDS011;9837;48.888;8.998;2022-10-29T08:11:02;10.23;;;4.43;;
19402;SDS011;9837;48.888;8.998;2022-10-29T08:13:28;13.83;;;5.97;;
19402;SDS011;9837;48.888;8.998;2022-10-29T08:15:55;13.80;;;5.40;;
19402;SDS011;9837;48.888;8.998;2022-10-29T08:18:21;16.30;;;6.77;;
19402;SDS011;9837;48.888;8.998;2022-10-29T08:20:47;13.47;;;5.70;;
19402;SDS011;9837;48.888;8.998;2022-10-29T08:23:13;11.87;;;5.57;;
19402;SDS011;9837;48.888;8.998;2022-10-29T08:25:39;16.57;;;6.13;;
19402;SDS011;9837;48.888;8.998;2022-10-29T08:28:07;10.17;;;4.23;;
19402;SDS011;9837;48.888;8.998;2022-10-29T08:30:34;13.53;;;5.03;;
19402;SDS011;9837;48.888;8.998;2022-10-29T08:33:00;13.63;;;4.80;;
19402;SDS011;9837;48.888;8.998;2022-10-29T08:35:27;8.27;;;4.10;;
19402;SDS011;9837;48.888;8.998;2022-10-29T08:37:56;11.43;;;4.40;;
19402;SDS011;9837;48.888;8.998;2022-10-29T08:43:21;14.40;;;4.03;;
19402;SDS011;9837;48.888;8.998;2022-10-29T08:46:45;12.67;;;4.37;;
19402;SDS011;9837;48.888;8.998;2022-10-29T08:49:19;20.80;;;4.70;;
19402;SDS011;9837;48.888;8.998;2022-10-29T08:54:43;16.43;;;5.07;;
19402;SDS011;9837;48.888;8.998;2022-10-29T08:57:16;8.57;;;4.57;;
19402;SDS011;9837;48.888;8.998;2022-10-29T09:00:01;10.80;;;4.27;;
19402;SDS011;9837;48.888;8.998;2022-10-29T09:02:29;14.00;;;4.83;;
19402;SDS011;9837;48.888;8.998;2022-10-29T09:04:55;14.87;;;5.00;;
19402;SDS011;9837;48.888;8.998;2022-10-29T09:10:27;13.80;;;4.60;;
19402;SDS011;9837;48.888;8.998;2022-10-29T09:13:02;13.03;;;4.93;;
19402;SDS011;9837;48.888;8.998;2022-10-29T09:15:53;15.17;;;4.90;;
19402;SDS011;9837;48.888;8.998;2022-10-29T09:18:43;12.50;;;5.13;;
19402;SDS011;9837;48.888;8.998;2022-10-29T09:21:54;14.00;;;5.27;;
19402;SDS011;9837;48.888;8.998;2022-10-29T09:27:40;13.67;;;5.47;;
19402;SDS011;9837;48.888;8.998;2022-10-29T09:30:15;12.43;;;4.97;;
19402;SDS011;9837;48.888;8.998;2022-10-29T09:35:47;13.97;;;5.57;;
19402;SDS011;9837;48.888;8.998;2022-10-29T09:38:25;17.10;;;5.43;;
19402;SDS011;9837;48.888;8.998;2022-10-29T09:40:57;14.30;;;5.43;;
19402;SDS011;9837;48.888;8.998;2022-10-29T09:46:13;17.93;;;5.73;;
19402;SDS011;9837;48.888;8.998;2022-10-29T09:54:24;16.47;;;6.77;;
19402;SDS011;9837;48.888;8.998;2022-10-29T09:56:53;16.50;;;5.87;;
19402;SDS011;9837;48.888;8.998;2022-10-29T10:01:59;16.97;;;6.13;;
19402;SDS011;9837;48.888;8.998;2022-10-29T10:04:26;13.90;;;6.10;;
19402;SDS011;9837;48.888;8.998;2022-10-29T10:07:09;13.00;;;6.63;;
19402;SDS011;9837;48.888;8.998;2022-10-29T10:09:53;11.83;;;5.27;;
19402;SDS011;9837;48.888;8.998;2022-10-29T10:17:27;19.60;;;6.10;;
19402;SDS011;9837;48.888;8.998;2022-10-29T10:23:19;21.50;;;7.87;;
19402;SDS011;9837;48.888;8.998;2022-10-29T10:25:45;52.83;;;13.50;;
19402;SDS011;9837;48.888;8.998;2022-10-29T10:28:25;14.27;;;5.50;;
19402;SDS011;9837;48.888;8.998;2022-10-29T10:31:14;21.67;;;6.37;;
19402;SDS011;9837;48.888;8.998;2022-10-29T10:33:47;22.70;;;7.07;;
19402;SDS011;9837;48.888;8.998;2022-10-29T10:36:22;15.47;;;5.30;;
19402;SDS011;9837;48.888;8.998;2022-10-29T10:38:50;12.87;;;5.67;;
19402;SDS011;9837;48.888;8.998;2022-10-29T10:41:36;10.53;;;5.00;;
19402;SDS011;9837;48.888;8.998;2022-10-29T10:44:02;13.43;;;5.37;;
19402;SDS011;9837;48.888;8.998;2022-10-29T10:46:38;15.20;;;5.37;;
19402;SDS011;9837;48.888;8.998;2022-10-29T10:49:13;25.17;;;4.87;;
19402;SDS011;9837;48.888;8.998;2022-10-29T10:51:43;25.87;;;5.23;;
19402;SDS011;9837;48.888;8.998;2022-10-29T10:54:22;16.73;;;4.57;;
19402;SDS011;9837;48.888;8.998;2022-10-29T10:56:50;15.70;;;5.97;;
19402;SDS011;9837;48.888;8.998;2022-10-29T10:59:42;18.50;;;5.97;;
19402;SDS011;9837;48.888;8.998;2022-10-29T11:02:30;11.67;;;4.93;;
19402;SDS011;9837;48.888;8.998;2022-10-29T11:05:05;12.37;;;5.33;;
19402;SDS011;9837;48.888;8.998;2022-10-29T11:07:41;11.43;;;4.27;;
19402;SDS011;9837;48.888;8.998;2022-10-29T11:10:19;16.33;;;5.13;;
19402;SDS011;9837;48.888;8.998;2022-10-29T11:12:51;17.67;;;4.73;;
19402;SDS011;9837;48.888;8.998;2022-10-29T11:20:42;25.47;;;5.20;;
19402;SDS011;9837;48.888;8.998;2022-10-29T11:26:06;10.60;;;4.30;;
19402;SDS011;9837;48.888;8.998;2022-10-29T11:36:23;14.07;;;4.97;;
19402;SDS011;9837;48.888;8.998;2022-10-29T11:39:02;13.90;;;5.07;;
19402;SDS011;9837;48.888;8.998;2022-10-29T11:41:44;16.42;;;4.57;;
19402;SDS011;9837;48.888;8.998;2022-10-29T11:44:14;13.10;;;4.10;;
19402;SDS011;9837;48.888;8.998;2022-10-29T11:46:51;14.27;;;4.80;;
19402;SDS011;9837;48.888;8.998;2022-10-29T11:49:55;15.10;;;5.03;;
19402;SDS011;9837;48.888;8.998;2022-10-29T11:58:02;13.40;;;5.05;;
19402;SDS011;9837;48.888;8.998;2022-10-29T12:00:43;12.70;;;4.00;;
19402;SDS011;9837;48.888;8.998;2022-10-29T12:06:39;10.07;;;4.05;;
19402;SDS011;9837;48.888;8.998;2022-10-29T12:12:08;12.65;;;4.13;;
19402;SDS011;9837;48.888;8.998;2022-10-29T12:14:42;12.93;;;4.10;;
19402;SDS011;9837;48.888;8.998;2022-10-29T12:17:32;10.32;;;4.13;;
19402;SDS011;9837;48.888;8.998;2022-10-29T12:20:21;12.95;;;4.63;;
19402;SDS011;9837;48.888;8.998;2022-10-29T12:29:16;12.68;;;4.25;;
19402;SDS011;9837;48.888;8.998;2022-10-29T12:40:01;11.75;;;4.32;;
19402;SDS011;9837;48.888;8.998;2022-10-29T12:42:33;13.80;;;5.40;;
19402;SDS011;9837;48.888;8.998;2022-10-29T12:45:12;12.57;;;5.07;;
19402;SDS011;9837;48.888;8.998;2022-10-29T12:47:46;16.35;;;4.57;;
19402;SDS011;9837;48.888;8.998;2022-10-29T12:51:05;8.15;;;4.57;;
19402;SDS011;9837;48.888;8.998;2022-10-29T12:55:57;12.35;;;4.85;;
19402;SDS011;9837;48.888;8.998;2022-10-29T13:09:21;17.38;;;5.20;;
19402;SDS011;9837;48.888;8.998;2022-10-29T13:11:49;17.83;;;5.40;;
19402;SDS011;9837;48.888;8.998;2022-10-29T13:14:18;25.52;;;5.80;;
19402;SDS011;9837;48.888;8.998;2022-10-29T13:16:48;18.52;;;6.10;;
19402;SDS011;9837;48.888;8.998;2022-10-29T13:24:39;14.23;;;5.07;;
19402;SDS011;9837;48.888;8.998;2022-10-29T13:32:34;11.73;;;4.75;;
19402;SDS011;9837;48.888;8.998;2022-10-29T13:35:37;18.77;;;5.82;;
19402;SDS011;9837;48.888;8.998;2022-10-29T13:37:47;14.50;;;6.25;;
19402;SDS011;9837;48.888;8.998;2022-10-29T13:41:03;16.20;;;5.10;;
19402;SDS011;9837;48.888;8.998;2022-10-29T13:45:30;10.85;;;4.63;;
19402;SDS011;9837;48.888;8.998;2022-10-29T13:47:59;18.13;;;5.45;;
19402;SDS011;9837;48.888;8.998;2022-10-29T13:50:37;20.45;;;5.35;;
19402;SDS011;9837;48.888;8.998;2022-10-29T13:53:04;20.02;;;4.82;;
19402;SDS011;9837;48.888;8.998;2022-10-29T13:55:35;14.38;;;5.07;;
19402;SDS011;9837;48.888;8.998;2022-10-29T14:00:37;11.00;;;4.97;;
19402;SDS011;9837;48.888;8.998;2022-10-29T14:05:48;55.63;;;8.60;;
19402;SDS011;9837;48.888;8.998;2022-10-29T14:08:33;12.50;;;5.05;;
19402;SDS011;9837;48.888;8.998;2022-10-29T14:11:25;17.65;;;5.45;;
19402;SDS011;9837;48.888;8.998;2022-10-29T14:13:51;14.15;;;4.95;;
19402;SDS011;9837;48.888;8.998;2022-10-29T14:16:28;13.05;;;5.05;;
19402;SDS011;9837;48.888;8.998;2022-10-29T14:18:56;11.68;;;4.20;;
19402;SDS011;9837;48.888;8.998;2022-10-29T14:21:27;13.13;;;5.30;;
19402;SDS011;9837;48.888;8.998;2022-10-29T14:23:54;10.88;;;4.63;;
19402;SDS011;9837;48.888;8.998;2022-10-29T14:26:20;17.35;;;4.90;;
19402;SDS011;9837;48.888;8.998;2022-10-29T14:28:48;10.30;;;4.30;;
19402;SDS011;9837;48.888;8.998;2022-10-29T14:31:15;13.90;;;4.45;;
19402;SDS011;9837;48.888;8.998;2022-10-29T14:34:04;11.43;;;4.68;;
19402;SDS011;9837;48.888;8.998;2022-10-29T14:36:30;17.67;;;5.47;;
19402;SDS011;9837;48.888;8.998;2022-10-29T14:39:23;10.73;;;4.85;;
19402;SDS011;9837;48.888;8.998;2022-10-29T14:41:53;12.10;;;4.13;;
19402;SDS011;9837;48.888;8.998;2022-10-29T14:47:03;9.75;;;4.43;;
19402;SDS011;9837;48.888;8.998;2022-10-29T14:49:32;16.52;;;4.65;;
19402;SDS011;9837;48.888;8.998;2022-10-29T14:52:46;11.05;;;5.47;;
19402;SDS011;9837;48.888;8.998;2022-10-29T14:55:05;10.80;;;5.18;;
19402;SDS011;9837;48.888;8.998;2022-10-29T14:57:50;12.35;;;4.05;;
19402;SDS011;9837;48.888;8.998;2022-10-29T15:00:38;15.55;;;3.47;;
19402;SDS011;9837;48.888;8.998;2022-10-29T15:03:17;12.98;;;3.40;;
19402;SDS011;9837;48.888;8.998;2022-10-29T15:05:46;11.75;;;4.15;;
19402;SDS011;9837;48.888;8.998;2022-10-29T15:08:16;12.85;;;3.65;;
19402;SDS011;9837;48.888;8.998;2022-10-29T15:10:52;10.95;;;3.33;;
19402;SDS011;9837;48.888;8.998;2022-10-29T15:15:49;13.37;;;3.97;;
19402;SDS011;9837;48.888;8.998;2022-10-29T15:18:18;13.77;;;4.20;;
19402;SDS011;9837;48.888;8.998;2022-10-29T15:20:45;11.80;;;3.40;;
19402;SDS011;9837;48.888;8.998;2022-10-29T15:23:33;15.20;;;4.77;;
19402;SDS011;9837;48.888;8.998;2022-10-29T15:26:16;11.60;;;3.13;;
19402;SDS011;9837;48.888;8.998;2022-10-29T15:28:46;12.77;;;3.23;;
19402;SDS011;9837;48.888;8.998;2022-10-29T15:31:39;8.77;;;3.30;;
19402;SDS011;9837;48.888;8.998;2022-10-29T15:34:09;11.93;;;4.00;;
19402;SDS011;9837;48.888;8.998;2022-10-29T15:36:45;12.03;;;3.63;;
19402;SDS011;9837;48.888;8.998;2022-10-29T15:39:21;15.50;;;3.37;;
19402;SDS011;9837;48.888;8.998;2022-10-29T15:42:02;21.10;;;3.87;;
19402;SDS011;9837;48.888;8.998;2022-10-29T15:45:01;11.70;;;3.63;;
19402;SDS011;9837;48.888;8.998;2022-10-29T15:47:40;11.50;;;3.57;;
19402;SDS011;9837;48.888;8.998;2022-10-29T15:50:11;16.90;;;3.77;;
19402;SDS011;9837;48.888;8.998;2022-10-29T15:52:58;12.63;;;4.10;;
19402;SDS011;9837;48.888;8.998;2022-10-29T15:55:33;18.97;;;3.27;;
19402;SDS011;9837;48.888;8.998;2022-10-29T15:58:05;7.37;;;3.43;;
19402;SDS011;9837;48.888;8.998;2022-10-29T16:00:33;11.43;;;3.63;;
19402;SDS011;9837;48.888;8.998;2022-10-29T16:03:13;14.83;;;4.20;;
19402;SDS011;9837;48.888;8.998;2022-10-29T16:05:43;10.87;;;4.07;;
19402;SDS011;9837;48.888;8.998;2022-10-29T16:08:24;12.27;;;4.00;;
19402;SDS011;9837;48.888;8.998;2022-10-29T16:10:53;19.27;;;4.73;;
19402;SDS011;9837;48.888;8.998;2022-10-29T16:13:23;12.27;;;3.77;;
19402;SDS011;9837;48.888;8.998;2022-10-29T16:15:51;14.00;;;3.80;;
19402;SDS011;9837;48.888;8.998;2022-10-29T16:18:17;19.77;;;4.30;;
19402;SDS011;9837;48.888;8.998;2022-10-29T16:20:42;12.30;;;4.20;;
19402;SDS011;9837;48.888;8.998;2022-10-29T16:23:09;15.40;;;4.23;;
19402;SDS011;9837;48.888;8.998;2022-10-29T16:25:35;22.03;;;8.13;;
19402;SDS011;9837;48.888;8.998;2022-10-29T16:28:01;20.10;;;8.40;;
19402;SDS011;9837;48.888;8.998;2022-10-29T16:30:27;20.97;;;6.13;;
19402;SDS011;9837;48.888;8.998;2022-10-29T16:32:53;19.67;;;6.23;;
19402;SDS011;9837;48.888;8.998;2022-10-29T16:37:46;23.13;;;5.60;;
19402;SDS011;9837;48.888;8.998;2022-10-29T16:40:12;14.40;;;5.13;;
19402;SDS011;9837;48.888;8.998;2022-10-29T16:42:39;17.37;;;4.40;;
19402;SDS011;9837;48.888;8.998;2022-10-29T16:45:05;9.70;;;5.03;;
19402;SDS011;9837;48.888;8.998;2022-10-29T16:47:34;10.37;;;4.17;;
19402;SDS011;9837;48.888;8.998;2022-10-29T16:50:00;15.07;;;4.90;;
19402;SDS011;9837;48.888;8.998;2022-10-29T16:52:26;12.27;;;4.87;;
19402;SDS011;9837;48.888;8.998;2022-10-29T16:54:51;14.17;;;4.80;;
19402;SDS011;9837;48.888;8.998;2022-10-29T16:57:17;12.03;;;4.83;;
19402;SDS011;9837;48.888;8.998;2022-10-29T16:59:43;12.87;;;5.00;;
19402;SDS011;9837;48.888;8.998;2022-10-29T17:02:09;16.50;;;5.03;;
19402;SDS011;9837;48.888;8.998;2022-10-29T17:04:35;16.10;;;4.77;;
19402;SDS011;9837;48.888;8.998;2022-10-29T17:07:01;12.90;;;5.10;;
19402;SDS011;9837;48.888;8.998;2022-10-29T17:09:27;16.30;;;5.40;;
19402;SDS011;9837;48.888;8.998;2022-10-29T17:11:55;14.27;;;5.67;;
19402;SDS011;9837;48.888;8.998;2022-10-29T17:14:22;14.27;;;6.73;;
19402;SDS011;9837;48.888;8.998;2022-10-29T17:16:48;17.90;;;5.97;;
19402;SDS011;9837;48.888;8.998;2022-10-29T17:19:14;20.63;;;6.20;;
19402;SDS011;9837;48.888;8.998;2022-10-29T17:21:40;17.63;;;6.50;;
19402;SDS011;9837;48.888;8.998;2022-10-29T17:24:06;14.40;;;5.87;;
19402;SDS011;9837;48.888;8.998;2022-10-29T17:26:32;15.87;;;7.93;;
19402;SDS011;9837;48.888;8.998;2022-10-29T17:28:58;23.10;;;7.47;;
19402;SDS011;9837;48.888;8.998;2022-10-29T17:31:24;17.53;;;8.13;;
19402;SDS011;9837;48.888;8.998;2022-10-29T17:33:51;16.67;;;7.40;;
19402;SDS011;9837;48.888;8.998;2022-10-29T17:36:17;13.33;;;7.57;;
19402;SDS011;9837;48.888;8.998;2022-10-29T17:38:43;20.20;;;7.50;;
19402;SDS011;9837;48.888;8.998;2022-10-29T17:41:09;20.13;;;8.10;;
19402;SDS011;9837;48.888;8.998;2022-10-29T17:43:35;32.07;;;8.50;;
19402;SDS011;9837;48.888;8.998;2022-10-29T17:46:02;29.57;;;7.20;;
19402;SDS011;9837;48.888;8.998;2022-10-29T17:48:28;22.80;;;7.43;;
19402;SDS011;9837;48.888;8.998;2022-10-29T17:50:55;21.60;;;6.50;;
19402;SDS011;9837;48.888;8.998;2022-10-29T17:53:22;19.57;;;6.93;;
19402;SDS011;9837;48.888;8.998;2022-10-29T17:55:48;13.90;;;5.37;;
19402;SDS011;9837;48.888;8.998;2022-10-29T17:58:18;15.63;;;5.57;;
19402;SDS011;9837;48.888;8.998;2022-10-29T18:00:44;18.50;;;5.83;;
19402;SDS011;9837;48.888;8.998;2022-10-29T18:03:10;16.33;;;6.03;;
19402;SDS011;9837;48.888;8.998;2022-10-29T18:05:36;13.57;;;5.43;;
19402;SDS011;9837;48.888;8.998;2022-10-29T18:08:03;15.37;;;5.07;;
19402;SDS011;9837;48.888;8.998;2022-10-29T18:10:30;11.93;;;5.53;;
19402;SDS011;9837;48.888;8.998;2022-10-29T18:12:59;16.43;;;6.07;;
19402;SDS011;9837;48.888;8.998;2022-10-29T18:15:25;12.20;;;5.67;;
19402;SDS011;9837;48.888;8.998;2022-10-29T18:17:51;15.33;;;6.20;;
19402;SDS011;9837;48.888;8.998;2022-10-29T18:20:17;33.83;;;12.33;;
19402;SDS011;9837;48.888;8.998;2022-10-29T18:22:43;22.30;;;8.03;;
19402;SDS011;9837;48.888;8.998;2022-10-29T18:25:09;16.53;;;6.17;;
19402;SDS011;9837;48.888;8.998;2022-10-29T18:27:36;21.83;;;6.93;;
19402;SDS011;9837;48.888;8.998;2022-10-29T18:30:03;16.80;;;9.23;;
19402;SDS011;9837;48.888;8.998;2022-10-29T18:32:29;15.67;;;7.57;;
19402;SDS011;9837;48.888;8.998;2022-10-29T18:34:55;16.77;;;8.20;;
19402;SDS011;9837;48.888;8.998;2022-10-29T18:37:21;22.27;;;8.50;;
19402;SDS011;9837;48.888;8.998;2022-10-29T18:39:49;11.17;;;6.57;;
19402;SDS011;9837;48.888;8.998;2022-10-29T18:42:16;11.87;;;5.20;;
19402;SDS011;9837;48.888;8.998;2022-10-29T18:44:42;15.33;;;6.80;;
19402;SDS011;9837;48.888;8.998;2022-10-29T18:47:08;15.03;;;7.10;;
19402;SDS011;9837;48.888;8.998;2022-10-29T18:49:34;17.23;;;5.40;;
19402;SDS011;9837;48.888;8.998;2022-10-29T18:52:00;13.70;;;4.70;;
19402;SDS011;9837;48.888;8.998;2022-10-29T18:54:26;13.83;;;5.20;;
19402;SDS011;9837;48.888;8.998;2022-10-29T18:56:52;12.63;;;4.90;;
19402;SDS011;9837;48.888;8.998;2022-10-29T18:59:18;18.60;;;5.40;;
19402;SDS011;9837;48.888;8.998;2022-10-29T19:01:43;10.33;;;4.90;;
19402;SDS011;9837;48.888;8.998;2022-10-29T19:04:10;12.93;;;5.53;;
19402;SDS011;9837;48.888;8.998;2022-10-29T19:06:38;9.13;;;5.43;;
19402;SDS011;9837;48.888;8.998;2022-10-29T19:09:05;11.70;;;5.27;;
19402;SDS011;9837;48.888;8.998;2022-10-29T19:11:32;15.97;;;5.03;;
19402;SDS011;9837;48.888;8.998;2022-10-29T19:13:59;12.93;;;5.00;;
19402;SDS011;9837;48.888;8.998;2022-10-29T19:16:27;11.67;;;5.20;;
19402;SDS011;9837;48.888;8.998;2022-10-29T19:18:57;9.93;;;4.40;;
19402;SDS011;9837;48.888;8.998;2022-10-29T19:21:24;13.90;;;5.50;;
19402;SDS011;9837;48.888;8.998;2022-10-29T19:23:54;12.17;;;4.80;;
19402;SDS011;9837;48.888;8.998;2022-10-29T19:26:25;11.30;;;4.13;;
19402;SDS011;9837;48.888;8.998;2022-10-29T19:28:52;17.23;;;5.13;;
19402;SDS011;9837;48.888;8.998;2022-10-29T19:31:19;13.20;;;4.83;;
19402;SDS011;9837;48.888;8.998;2022-10-29T19:33:53;13.67;;;4.63;;
19402;SDS011;9837;48.888;8.998;2022-10-29T19:36:21;11.57;;;5.10;;
19402;SDS011;9837;48.888;8.998;2022-10-29T19:38:48;16.73;;;5.63;;
19402;SDS011;9837;48.888;8.998;2022-10-29T19:41:14;13.47;;;5.40;;
19402;SDS011;9837;48.888;8.998;2022-10-29T19:43:40;13.50;;;5.10;;
19402;SDS011;9837;48.888;8.998;2022-10-29T19:46:07;7.90;;;3.53;;
19402;SDS011;9837;48.888;8.998;2022-10-29T19:48:36;13.30;;;3.50;;
19402;SDS011;9837;48.888;8.998;2022-10-29T19:51:02;11.80;;;4.00;;
19402;SDS011;9837;48.888;8.998;2022-10-29T19:53:28;11.10;;;4.57;;
19402;SDS011;9837;48.888;8.998;2022-10-29T19:55:54;14.80;;;4.53;;
19402;SDS011;9837;48.888;8.998;2022-10-29T19:58:21;14.07;;;4.10;;
19402;SDS011;9837;48.888;8.998;2022-10-29T20:00:48;15.40;;;4.23;;
19402;SDS011;9837;48.888;8.998;2022-10-29T20:03:15;6.30;;;3.37;;
19402;SDS011;9837;48.888;8.998;2022-10-29T20:05:41;17.63;;;4.00;;
19402;SDS011;9837;48.888;8.998;2022-10-29T20:08:07;15.83;;;5.10;;
19402;SDS011;9837;48.888;8.998;2022-10-29T20:10:33;23.97;;;5.10;;
19402;SDS011;9837;48.888;8.998;2022-10-29T20:13:00;14.83;;;4.37;;
19402;SDS011;9837;48.888;8.998;2022-10-29T20:15:26;9.90;;;3.87;;
19402;SDS011;9837;48.888;8.998;2022-10-29T20:17:52;13.03;;;4.23;;
19402;SDS011;9837;48.888;8.998;2022-10-29T20:20:18;13.10;;;4.27;;
19402;SDS011;9837;48.888;8.998;2022-10-29T20:22:45;11.77;;;3.80;;
19402;SDS011;9837;48.888;8.998;2022-10-29T20:25:11;17.17;;;4.40;;
19402;SDS011;9837;48.888;8.998;2022-10-29T20:27:37;8.47;;;3.80;;
19402;SDS011;9837;48.888;8.998;2022-10-29T20:30:04;18.53;;;4.23;;
19402;SDS011;9837;48.888;8.998;2022-10-29T20:32:30;12.70;;;3.97;;
19402;SDS011;9837;48.888;8.998;2022-10-29T20:34:56;11.03;;;4.17;;
19402;SDS011;9837;48.888;8.998;2022-10-29T20:37:22;17.20;;;4.40;;
19402;SDS011;9837;48.888;8.998;2022-10-29T20:39:48;18.37;;;4.00;;
19402;SDS011;9837;48.888;8.998;2022-10-29T20:42:14;14.20;;;3.73;;
19402;SDS011;9837;48.888;8.998;2022-10-29T20:44:40;14.07;;;5.17;;
19402;SDS011;9837;48.888;8.998;2022-10-29T20:47:06;10.23;;;3.77;;
19402;SDS011;9837;48.888;8.998;2022-10-29T20:49:32;11.87;;;3.57;;
19402;SDS011;9837;48.888;8.998;2022-10-29T20:51:58;9.90;;;3.80;;
19402;SDS011;9837;48.888;8.998;2022-10-29T20:54:24;14.27;;;4.23;;
19402;SDS011;9837;48.888;8.998;2022-10-29T20:56:50;14.00;;;4.27;;
19402;SDS011;9837;48.888;8.998;2022-10-29T20:59:17;8.73;;;3.70;;
19402;SDS011;9837;48.888;8.998;2022-10-29T21:01:43;14.23;;;3.97;;
19402;SDS011;9837;48.888;8.998;2022-10-29T21:04:09;13.90;;;4.43;;
19402;SDS011;9837;48.888;8.998;2022-10-29T21:06:34;12.53;;;3.40;;
19402;SDS011;9837;48.888;8.998;2022-10-29T21:09:00;8.63;;;4.33;;
19402;SDS011;9837;48.888;8.998;2022-10-29T21:11:26;10.53;;;4.33;;
19402;SDS011;9837;48.888;8.998;2022-10-29T21:13:52;16.23;;;4.40;;
19402;SDS011;9837;48.888;8.998;2022-10-29T21:16:22;11.43;;;4.60;;
19402;SDS011;9837;48.888;8.998;2022-10-29T21:18:53;10.00;;;3.67;;
19402;SDS011;9837;48.888;8.998;2022-10-29T21:21:20;11.97;;;4.57;;
19402;SDS011;9837;48.888;8.998;2022-10-29T21:23:46;14.37;;;4.43;;
19402;SDS011;9837;48.888;8.998;2022-10-29T21:26:13;16.50;;;4.20;;
19402;SDS011;9837;48.888;8.998;2022-10-29T21:28:41;15.03;;;4.40;;
19402;SDS011;9837;48.888;8.998;2022-10-29T21:31:07;8.50;;;3.97;;
19402;SDS011;9837;48.888;8.998;2022-10-29T21:33:33;10.23;;;3.77;;
19402;SDS011;9837;48.888;8.998;2022-10-29T21:35:59;14.97;;;4.53;;
19402;SDS011;9837;48.888;8.998;2022-10-29T21:38:25;15.90;;;4.97;;
19402;SDS011;9837;48.888;8.998;2022-10-29T21:40:52;11.97;;;4.53;;
19402;SDS011;9837;48.888;8.998;2022-10-29T21:43:18;11.07;;;4.47;;
19402;SDS011;9837;48.888;8.998;2022-10-29T21:45:46;10.23;;;4.00;;
19402;SDS011;9837;48.888;8.998;2022-10-29T21:48:13;12.60;;;4.20;;
19402;SDS011;9837;48.888;8.998;2022-10-29T21:50:39;15.13;;;4.27;;
19402;SDS011;9837;48.888;8.998;2022-10-29T21:53:05;16.10;;;3.97;;
19402;SDS011;9837;48.888;8.998;2022-10-29T21:55:32;10.97;;;3.63;;
19402;SDS011;9837;48.888;8.998;2022-10-29T21:57:58;10.60;;;4.00;;
